Time;durP1;ratioP1;P1;durP2;ratioP2;P2;SDS_P1;SDS_P2;PMS_P1;PMS_P2;Temp;Humidity;BMP_temperature;BMP_pressure;BME280_temperature;BME280_humidity;BME280_pressure;Samples;Min_cycle;Max_cycle;Signal;HPM_P1;HPM_P2
2021/06/07 03:17:20;;;;;;;10.07;7.25;;;;;;;18.83;64.71;100579.00;4348875;32;20138;-82
2021/06/07 03:19:56;;;;;;;12.00;7.22;;;;;;;18.81;64.71;100584.38;4346267;33;20087;-83
2021/06/07 03:22:24;;;;;;;13.70;7.55;;;;;;;18.60;66.46;100593.97;4347470;32;20491;-83
2021/06/07 03:24:52;;;;;;;9.10;6.72;;;;;;;18.39;68.43;100584.97;4347291;33;20114;-86
2021/06/07 04:49:21;;;;;;;6.43;3.90;;;;;;;27.75;42.83;100593.13;5021236;27;20292;-84
2021/06/07 04:51:48;;;;;;;5.95;4.35;;;;;;;28.34;41.28;100589.59;4409359;32;20067;-83
2021/06/07 04:54:15;;;;;;;5.55;4.20;;;;;;;28.42;41.93;100597.16;4396883;32;20136;-84
2021/06/07 04:56:42;;;;;;;6.47;4.05;;;;;;;28.38;41.55;100591.06;4398359;32;20118;-84
2021/06/07 04:59:09;;;;;;;7.15;4.32;;;;;;;28.84;40.85;100592.03;4409272;32;20408;-84
2021/06/07 05:01:36;;;;;;;5.05;4.47;;;;;;;29.00;40.80;100597.94;4407712;32;20098;-83
2021/06/07 05:04:50;;;;;;;5.35;3.87;;;;;;;29.31;40.58;100587.41;4397868;32;20102;-83
2021/06/07 05:16:15;;;;;;;;;;;;;;;;;;;;;
2021/06/07 05:20:09;;;;;;;;;;;;;;;;;;;;;
2021/06/07 11:17:43;;;;;;;6.12;5.53;;;;;;;33.27;32.63;100555.47;4898017;27;20094;-83
2021/06/07 11:20:11;;;;;;;7.05;5.75;;;;;;;31.83;34.76;100559.19;4370905;32;20099;-83
2021/06/07 11:23:10;;;;;;;6.85;5.80;;;;;;;31.89;34.83;100574.06;4391476;32;20098;-83
2021/06/07 11:25:44;;;;;;;16.55;5.82;;;;;;;29.53;38.84;100589.19;4360322;32;20103;-82
2021/06/07 12:36:32;;;;;;;7.40;4.10;;;;;;;27.63;41.27;100558.94;5192703;27;20039;31
2021/06/07 12:39:08;;;;;;;7.07;4.65;;;;;;;28.29;41.16;100559.34;4349938;32;20111;-82
2021/06/07 12:41:47;;;;;;;10.27;5.82;;;;;;;28.61;40.87;100553.31;4351208;32;20105;-83
2021/06/07 14:52:54;;;;;;;3.83;2.17;;;;;;;28.86;30.68;100450.34;4563805;27;20149;31
2021/06/07 14:55:23;;;;;;;4.72;2.58;;;;;;;28.33;31.85;100449.22;4347612;33;20091;-84
2021/06/07 14:57:50;;;;;;;5.57;3.12;;;;;;;28.20;32.83;100450.16;4351522;33;20810;-84
2021/06/07 15:00:19;;;;;;;4.03;2.85;;;;;;;28.31;32.09;100443.94;4355146;33;20114;-84
2021/06/07 15:02:46;;;;;;;3.73;3.33;;;;;;;28.01;30.27;100439.09;4356805;33;20103;-85
2021/06/07 15:05:14;;;;;;;3.50;3.20;;;;;;;28.63;32.64;100437.81;4346644;33;20118;-85
2021/06/07 15:07:41;;;;;;;4.97;3.10;;;;;;;28.33;30.61;100439.28;4353924;33;20107;-84
2021/06/07 15:10:08;;;;;;;4.35;3.00;;;;;;;28.45;31.26;100435.62;4353608;33;20449;-85
2021/06/07 15:12:36;;;;;;;4.45;3.25;;;;;;;28.68;30.93;100431.06;4353434;33;20174;-84
2021/06/07 15:15:04;;;;;;;3.53;3.22;;;;;;;28.59;30.53;100431.81;4353048;33;20078;-84
2021/06/07 15:17:31;;;;;;;4.60;3.97;;;;;;;29.20;31.50;100429.47;4340014;33;20187;-84
2021/06/07 15:19:58;;;;;;;7.43;3.50;;;;;;;28.48;31.12;100427.25;4353898;33;20095;-85
2021/06/07 15:22:25;;;;;;;3.37;3.08;;;;;;;28.81;33.15;100422.81;4350071;33;20125;-82
2021/06/07 15:24:52;;;;;;;4.82;3.85;;;;;;;28.66;35.80;100424.06;4347378;33;20154;-83
2021/06/07 15:27:19;;;;;;;6.50;4.20;;;;;;;28.41;37.34;100428.72;4350069;33;20096;-82
2021/06/07 15:29:46;;;;;;;4.30;3.90;;;;;;;27.87;40.81;100425.81;4335841;33;20119;-84
2021/06/07 15:32:13;;;;;;;6.82;3.87;;;;;;;28.01;41.08;100425.59;4349127;33;20100;-84
2021/06/07 15:34:40;;;;;;;6.30;4.30;;;;;;;28.42;39.79;100421.50;4348629;33;20086;-82
2021/06/07 15:37:08;;;;;;;5.25;3.92;;;;;;;28.44;39.73;100422.22;4335040;33;20186;-82
2021/06/07 15:39:35;;;;;;;4.43;3.60;;;;;;;28.67;38.21;100410.41;4331312;33;20104;-82
2021/06/07 15:42:02;;;;;;;5.72;3.85;;;;;;;28.25;36.76;100415.56;4332008;33;20104;-82
2021/06/07 15:44:29;;;;;;;5.50;3.60;;;;;;;29.14;35.64;100413.75;4332077;33;20092;-82
2021/06/07 15:46:56;;;;;;;5.97;4.40;;;;;;;29.04;35.71;100412.81;4331267;33;20573;-82
2021/06/07 15:49:23;;;;;;;6.72;4.22;;;;;;;29.25;35.82;100406.63;4345251;33;20121;-82
2021/06/07 15:51:52;;;;;;;6.22;3.83;;;;;;;28.63;36.40;100408.09;4347002;33;20119;-82
2021/06/07 15:54:22;;;;;;;5.00;4.03;;;;;;;28.32;35.54;100402.41;4346953;33;20094;-82
2021/06/07 15:56:49;;;;;;;6.25;4.00;;;;;;;28.38;36.99;100401.06;4346950;33;20139;-82
2021/06/07 15:59:15;;;;;;;6.45;4.50;;;;;;;28.65;36.98;100400.69;4333746;33;20837;-82
2021/06/07 16:01:43;;;;;;;4.00;3.30;;;;;;;28.63;36.27;100399.97;4346761;33;20117;-82
2021/06/07 16:04:10;;;;;;;4.00;3.08;;;;;;;28.87;33.77;100397.09;4347049;33;20095;-83
2021/06/07 16:06:38;;;;;;;4.75;4.10;;;;;;;28.89;33.23;100395.12;4345577;33;20087;-83
2021/06/07 16:09:06;;;;;;;4.87;4.00;;;;;;;28.87;35.74;100395.25;4346527;33;20174;-83
2021/06/07 16:11:37;;;;;;;5.55;4.50;;;;;;;28.50;37.58;100397.38;4346817;33;20087;-83
2021/06/07 16:14:04;;;;;;;4.82;3.97;;;;;;;28.55;38.82;100389.78;4346888;33;20083;-83
2021/06/07 16:16:38;;;;;;;7.50;4.32;;;;;;;28.65;38.25;100388.06;4346518;33;20166;-83
2021/06/07 16:19:08;;;;;;;4.03;3.00;;;;;;;28.91;36.14;100385.03;4346712;33;20095;-83
2021/06/07 16:21:35;;;;;;;4.62;3.67;;;;;;;28.75;32.75;100383.59;4346586;33;20113;-83
2021/06/07 16:24:03;;;;;;;2.90;2.53;;;;;;;28.97;32.14;100382.69;4346978;33;20448;-83
2021/06/07 16:26:32;;;;;;;4.75;3.17;;;;;;;29.36;29.63;100383.06;4332990;33;20083;-83
2021/06/07 16:29:00;;;;;;;4.95;3.20;;;;;;;29.71;29.05;100381.06;4346812;33;20159;-83
2021/06/07 16:31:28;;;;;;;3.33;3.03;;;;;;;29.64;30.81;100381.59;4346797;33;20099;-83
2021/06/07 16:33:56;;;;;;;6.03;3.53;;;;;;;29.40;30.56;100386.37;4346654;33;20125;-84
2021/06/07 16:36:24;;;;;;;4.47;3.42;;;;;;;29.68;30.68;100381.31;4346520;33;20114;-83
2021/06/07 16:38:54;;;;;;;4.03;3.50;;;;;;;29.96;30.69;100377.94;4346709;33;20150;-83
2021/06/07 16:41:21;;;;;;;5.25;4.10;;;;;;;29.60;32.53;100374.69;4346686;33;20221;-84
2021/06/07 16:43:48;;;;;;;4.40;3.92;;;;;;;28.60;34.69;100378.59;4346354;33;20100;-84
2021/06/07 16:46:15;;;;;;;5.12;3.87;;;;;;;29.37;33.04;100378.50;4345081;33;20071;-83
2021/06/07 16:48:42;;;;;;;7.10;4.37;;;;;;;29.44;34.82;100382.41;4337259;33;20171;-84
2021/06/07 16:51:09;;;;;;;5.28;3.97;;;;;;;29.80;33.24;100385.69;4331704;33;20091;-84
2021/06/07 16:53:36;;;;;;;5.25;4.20;;;;;;;29.65;35.14;100387.88;4331224;33;20668;-84
2021/06/07 16:56:05;;;;;;;4.25;3.83;;;;;;;28.82;36.95;100389.34;4331624;33;20138;-84
2021/06/07 16:58:35;;;;;;;6.22;3.53;;;;;;;29.16;36.77;100390.16;4331659;33;20111;-84
2021/06/07 17:01:02;;;;;;;8.15;4.15;;;;;;;29.27;35.92;100382.97;4318395;33;20130;-84
2021/06/07 17:03:30;;;;;;;10.70;3.78;;;;;;;29.53;35.49;100383.47;4331121;33;20083;-84
2021/06/07 17:05:56;;;;;;;4.37;3.92;;;;;;;29.51;36.22;100380.06;4331454;33;20087;-84
2021/06/07 17:08:23;;;;;;;6.70;4.28;;;;;;;29.58;36.21;100384.78;4331513;33;20118;-84
2021/06/07 17:10:50;;;;;;;4.40;4.00;;;;;;;29.17;37.28;100391.88;4331518;33;20494;-84
2021/06/07 17:13:20;;;;;;;7.37;5.93;;;;;;;29.29;37.66;100387.25;4331448;33;20102;-84
2021/06/07 17:15:49;;;;;;;5.22;4.68;;;;;;;29.11;38.88;100395.09;4318119;33;20103;-84
2021/06/07 17:18:17;;;;;;;6.65;4.05;;;;;;;29.27;38.65;100396.50;4331184;33;20711;-84
2021/06/07 17:20:47;;;;;;;6.53;4.10;;;;;;;29.23;38.97;100393.19;4331098;33;20095;-84
2021/06/07 17:23:14;;;;;;;5.05;3.55;;;;;;;29.26;38.10;100395.66;4331236;33;20111;-84
2021/06/07 17:25:43;;;;;;;4.90;3.65;;;;;;;29.27;38.00;100383.84;4331196;33;20111;-84
2021/06/07 17:28:11;;;;;;;4.45;4.03;;;;;;;29.20;38.13;100391.59;4331181;33;20163;-84
2021/06/07 17:30:39;;;;;;;5.10;3.50;;;;;;;29.33;38.00;100396.84;4331160;33;20118;-84
2021/06/07 17:33:07;;;;;;;4.30;3.70;;;;;;;29.33;38.00;100404.97;4331205;33;20087;-84
2021/06/07 17:35:35;;;;;;;5.72;4.12;;;;;;;29.19;38.45;100407.97;4331127;33;20579;-84
2021/06/07 17:38:03;;;;;;;5.35;3.65;;;;;;;29.11;39.44;100400.50;4317582;33;20107;-84
2021/06/07 17:40:31;;;;;;;5.87;3.72;;;;;;;29.14;40.18;100399.37;4330801;33;20459;-84
2021/06/07 17:42:58;;;;;;;5.78;4.32;;;;;;;29.27;40.49;100399.19;4330929;33;20277;-84
2021/06/07 17:45:25;;;;;;;5.00;3.87;;;;;;;29.33;40.77;100396.00;4330800;33;20083;-84
2021/06/07 17:47:53;;;;;;;4.05;3.53;;;;;;;29.30;40.89;100394.41;4335119;33;20118;-84
2021/06/07 17:50:20;;;;;;;5.32;3.90;;;;;;;29.28;40.66;100398.22;4345484;33;20167;-84
2021/06/07 17:52:48;;;;;;;4.22;3.67;;;;;;;29.16;41.19;100398.28;4345458;33;20438;-84
2021/06/07 17:55:18;;;;;;;5.83;4.07;;;;;;;28.99;41.85;100387.97;4343895;33;20536;-84
2021/06/07 17:57:45;;;;;;;4.68;3.42;;;;;;;28.96;42.18;100388.22;4345386;33;20166;-84
2021/06/07 18:00:15;;;;;;;5.47;4.07;;;;;;;28.97;42.39;100396.22;4345484;33;20119;-84
2021/06/07 18:02:43;;;;;;;5.75;4.22;;;;;;;28.99;42.72;100402.34;4345320;33;20103;-85
2021/06/07 18:05:12;;;;;;;5.68;3.90;;;;;;;29.08;42.74;100395.34;4345461;33;20150;-85
2021/06/07 18:07:43;;;;;;;9.93;4.50;;;;;;;28.89;42.79;100395.12;4331959;33;20115;-85
2021/06/07 18:10:16;;;;;;;10.88;4.60;;;;;;;28.94;42.99;100399.19;4345453;33;20142;-85
2021/06/07 18:12:44;;;;;;;11.23;5.12;;;;;;;28.87;43.46;100394.41;4345121;33;20105;-84
2021/06/07 18:15:13;;;;;;;12.63;4.45;;;;;;;28.68;44.33;100397.78;4345259;33;20150;-85
2021/06/07 18:17:40;;;;;;;5.30;3.85;;;;;;;28.63;44.07;100406.25;4345137;33;20095;-85
2021/06/07 18:20:08;;;;;;;8.25;4.40;;;;;;;28.61;44.14;100410.03;4345301;33;20457;-85
2021/06/07 18:22:35;;;;;;;10.07;4.40;;;;;;;28.43;44.72;100401.59;4331930;33;20461;-84
2021/06/07 18:25:03;;;;;;;7.35;4.55;;;;;;;28.39;44.27;100403.66;4345166;33;20215;-85
2021/06/07 18:27:30;;;;;;;5.95;4.37;;;;;;;28.34;44.98;100394.19;4345222;33;20103;-84
2021/06/07 18:29:57;;;;;;;6.95;4.05;;;;;;;28.31;45.18;100409.66;4346636;33;20428;-85
2021/06/07 18:32:24;;;;;;;7.07;4.22;;;;;;;28.23;45.03;100403.13;4347429;33;20159;-85
2021/06/07 18:34:53;;;;;;;6.87;4.22;;;;;;;28.13;45.31;100413.81;4347046;33;20400;-85
2021/06/07 18:37:21;;;;;;;6.00;4.77;;;;;;;28.02;44.01;100408.41;4347368;33;20516;-85
2021/06/07 18:39:49;;;;;;;5.95;4.68;;;;;;;28.00;44.93;100407.66;4347234;33;20096;-84
2021/06/07 18:42:16;;;;;;;6.80;4.68;;;;;;;28.11;45.57;100414.94;4333685;33;20220;-85
2021/06/07 18:44:46;;;;;;;5.82;4.57;;;;;;;27.97;46.71;100413.31;4341334;33;20558;-84
2021/06/07 18:47:13;;;;;;;6.10;4.70;;;;;;;27.85;47.33;100416.00;4345818;33;20170;-85
2021/06/07 18:49:40;;;;;;;7.62;4.93;;;;;;;27.68;47.53;100419.13;4319114;33;20167;-85
2021/06/07 18:52:08;;;;;;;5.60;4.40;;;;;;;27.39;47.62;100419.50;4319149;33;20502;-84
2021/06/07 18:54:35;;;;;;;7.00;5.12;;;;;;;27.35;47.67;100420.69;4332222;33;20118;-85
2021/06/07 18:57:02;;;;;;;8.85;5.35;;;;;;;27.38;48.24;100425.88;4332521;33;20100;-85
2021/06/07 18:59:29;;;;;;;9.20;5.18;;;;;;;27.08;48.32;100426.28;4332300;33;20099;-84
2021/06/07 19:01:56;;;;;;;9.90;4.70;;;;;;;26.82;48.15;100435.44;4332370;33;20686;-85
2021/06/07 19:04:23;;;;;;;8.35;5.12;;;;;;;26.79;47.72;100439.22;4332445;33;20419;-85
2021/06/07 19:06:50;;;;;;;5.70;4.47;;;;;;;26.67;47.98;100438.28;4332388;33;20820;-85
2021/06/07 19:09:17;;;;;;;8.57;4.57;;;;;;;26.47;47.60;100439.69;4332320;33;20114;-84
2021/06/07 19:11:44;;;;;;;7.82;4.70;;;;;;;26.41;48.06;100456.28;4326322;33;20113;-85
2021/06/07 19:14:11;;;;;;;7.87;4.65;;;;;;;26.36;47.59;100461.16;4319083;33;20075;-84
2021/06/07 19:16:38;;;;;;;5.95;4.78;;;;;;;26.23;47.22;100461.13;4332412;33;20102;-84
2021/06/07 19:19:06;;;;;;;8.05;5.28;;;;;;;26.14;47.08;100461.78;4332195;33;20092;-84
2021/06/07 19:21:33;;;;;;;7.87;5.43;;;;;;;26.19;48.46;100464.16;4332362;33;20096;-84
2021/06/07 19:24:00;;;;;;;9.10;5.47;;;;;;;26.07;49.03;100465.03;4332100;33;20229;-85
2021/06/07 19:26:26;;;;;;;6.20;5.32;;;;;;;26.00;49.31;100465.44;4332357;33;20099;-85
2021/06/07 19:28:53;;;;;;;10.32;5.62;;;;;;;25.99;50.16;100465.53;4332547;33;20564;-84
2021/06/07 19:31:20;;;;;;;7.78;5.15;;;;;;;25.96;50.56;100468.44;4332255;33;20133;-84
2021/06/07 19:33:48;;;;;;;6.90;4.75;;;;;;;25.86;49.56;100468.22;4319217;33;20101;-85
2021/06/07 19:36:15;;;;;;;7.78;5.68;;;;;;;25.97;50.00;100475.53;4332412;33;20114;-85
2021/06/07 19:38:42;;;;;;;13.18;6.05;;;;;;;25.78;50.94;100482.16;4332542;33;20512;-85
2021/06/07 19:41:11;;;;;;;11.75;6.62;;;;;;;25.58;51.81;100483.50;4332916;33;20154;-84
2021/06/07 19:43:38;;;;;;;8.20;5.05;;;;;;;25.12;53.38;100474.91;4332825;33;20110;-85
2021/06/07 19:46:06;;;;;;;11.35;6.72;;;;;;;25.15;53.02;100482.81;4332948;33;20103;-84
2021/06/07 19:48:33;;;;;;;10.55;6.50;;;;;;;25.18;52.89;100482.62;4327543;33;20227;-85
2021/06/07 19:51:00;;;;;;;11.40;6.70;;;;;;;24.91;53.00;100479.81;4347608;33;20103;-85
2021/06/07 19:53:28;;;;;;;9.00;6.12;;;;;;;24.87;52.29;100486.38;4346253;33;20409;-84
2021/06/07 19:55:56;;;;;;;7.10;5.70;;;;;;;24.79;51.93;100480.63;4347710;33;20134;-85
2021/06/07 19:58:25;;;;;;;11.73;5.87;;;;;;;24.70;52.18;100482.94;4334476;33;20161;-84
2021/06/07 20:00:53;;;;;;;9.57;5.05;;;;;;;24.77;51.20;100482.56;4335112;33;20114;-84
2021/06/07 20:03:21;;;;;;;7.50;5.47;;;;;;;24.71;51.41;100478.44;4334874;33;20077;-84
2021/06/07 20:05:49;;;;;;;5.93;4.80;;;;;;;24.73;51.05;100481.00;4348756;33;20826;-85
2021/06/07 20:08:16;;;;;;;9.40;6.53;;;;;;;24.63;51.62;100486.12;4334887;33;20107;-84
2021/06/07 20:10:44;;;;;;;9.70;5.30;;;;;;;24.33;53.84;100489.72;4335257;33;20484;-85
2021/06/07 20:13:11;;;;;;;12.90;6.43;;;;;;;24.49;52.30;100492.34;4335271;33;20469;-84
2021/06/07 20:15:39;;;;;;;7.35;6.47;;;;;;;24.38;52.98;100492.09;4348869;33;20849;-84
2021/06/07 20:18:07;;;;;;;7.10;6.20;;;;;;;24.34;52.59;100491.44;4349189;33;20118;-84
2021/06/07 20:20:34;;;;;;;7.45;5.30;;;;;;;24.07;53.41;100491.31;4348760;33;20111;-85
2021/06/07 20:23:01;;;;;;;10.30;6.47;;;;;;;24.04;53.62;100491.50;4347288;33;20437;-84
2021/06/07 20:25:28;;;;;;;6.47;5.72;;;;;;;24.12;53.43;100494.59;4349167;33;20092;-85
2021/06/07 20:27:55;;;;;;;9.38;5.55;;;;;;;24.11;53.67;100497.34;4335647;33;20115;-85
2021/06/07 20:30:22;;;;;;;6.18;5.57;;;;;;;24.12;53.08;100499.97;4349704;33;20087;-85
2021/06/07 20:32:49;;;;;;;7.30;5.78;;;;;;;24.12;52.87;100507.13;4349653;33;20087;-85
2021/06/07 20:35:18;;;;;;;8.52;5.12;;;;;;;24.12;52.53;100505.31;4335709;33;20665;-85
2021/06/07 20:37:47;;;;;;;6.80;6.05;;;;;;;23.96;52.50;100508.03;4349877;33;20071;-85
2021/06/07 20:40:16;;;;;;;14.18;5.95;;;;;;;23.92;52.61;100509.19;4350167;33;20475;-85
2021/06/07 20:42:44;;;;;;;7.60;6.00;;;;;;;23.91;52.24;100510.12;4336476;33;20460;-85
2021/06/07 20:45:17;;;;;;;9.43;6.78;;;;;;;23.73;52.72;100505.88;4350269;33;20959;-85
2021/06/07 20:47:45;;;;;;;7.20;5.80;;;;;;;23.58;53.38;100512.97;4340667;33;20589;-85
2021/06/07 20:50:13;;;;;;;12.32;6.97;;;;;;;23.57;52.73;100516.59;4335085;33;20178;-85
2021/06/07 20:52:40;;;;;;;7.95;6.12;;;;;;;23.68;52.55;100515.97;4322001;33;20158;-85
2021/06/07 20:55:09;;;;;;;7.30;6.40;;;;;;;23.51;52.84;100511.59;4335363;33;20411;-84
2021/06/07 20:57:36;;;;;;;13.90;7.10;;;;;;;23.33;53.17;100510.84;4322334;33;20115;-85
2021/06/07 21:00:05;;;;;;;9.77;7.82;;;;;;;23.03;53.62;100514.31;4335068;33;20091;-85
2021/06/07 21:02:32;;;;;;;9.30;7.40;;;;;;;23.11;53.87;100520.06;4335012;33;20503;-84
2021/06/07 21:04:59;;;;;;;9.07;6.55;;;;;;;22.82;55.11;100512.75;4335471;33;20096;-85
2021/06/07 21:07:26;;;;;;;10.00;7.45;;;;;;;22.00;56.92;100527.75;4335254;33;20165;-84
2021/06/07 21:09:54;;;;;;;8.07;6.62;;;;;;;21.70;56.78;100531.97;4334968;33;20100;-85
2021/06/07 21:12:21;;;;;;;6.68;5.95;;;;;;;20.84;58.83;100526.25;4335152;33;20107;-84
2021/06/07 21:14:48;;;;;;;8.52;5.78;;;;;;;21.07;57.19;100538.53;4334994;33;20088;-84
2021/06/07 21:17:15;;;;;;;8.27;5.93;;;;;;;21.17;56.93;100532.75;4335401;33;20450;-84
2021/06/07 21:19:42;;;;;;;8.50;5.90;;;;;;;21.39;55.65;100529.94;4335431;33;20150;-85
2021/06/07 21:22:10;;;;;;;7.07;6.12;;;;;;;21.58;54.94;100530.75;4335470;33;20161;-84
2021/06/07 21:24:37;;;;;;;7.87;6.70;;;;;;;21.23;56.47;100527.97;4335149;33;20104;-86
2021/06/07 21:27:05;;;;;;;7.87;6.12;;;;;;;21.52;55.60;100525.72;4335323;33;20092;-85
2021/06/07 21:29:32;;;;;;;7.93;6.07;;;;;;;21.54;55.94;100526.53;4334825;33;20072;-85
2021/06/07 21:31:59;;;;;;;6.95;6.10;;;;;;;21.82;55.15;100535.84;4334277;33;20117;-84
2021/06/07 21:34:27;;;;;;;6.68;5.75;;;;;;;21.80;54.83;100530.56;4321102;33;20095;-84
2021/06/07 21:36:55;;;;;;;10.32;6.80;;;;;;;21.75;54.79;100532.59;4334069;33;20111;-85
2021/06/07 21:39:22;;;;;;;7.18;6.47;;;;;;;21.80;54.33;100533.25;4333795;33;20612;-85
2021/06/07 21:41:48;;;;;;;6.43;5.82;;;;;;;21.61;54.07;100535.09;4333644;33;20093;-85
2021/06/07 21:44:16;;;;;;;7.82;5.57;;;;;;;21.70;52.98;100532.81;4320497;33;20450;-85
2021/06/07 21:46:43;;;;;;;8.20;5.97;;;;;;;21.68;52.61;100537.41;4334092;33;20104;-85
2021/06/07 21:49:10;;;;;;;7.10;6.40;;;;;;;21.66;53.27;100539.28;4332448;33;20095;-85
2021/06/07 21:51:37;;;;;;;7.30;6.53;;;;;;;21.73;53.87;100542.50;4319004;33;20151;-85
2021/06/07 21:54:05;;;;;;;6.95;6.03;;;;;;;21.61;55.02;100543.97;4332616;33;20147;-85
2021/06/07 21:56:32;;;;;;;8.00;6.80;;;;;;;21.60;54.81;100541.41;4332781;33;20095;-84
2021/06/07 21:58:59;;;;;;;8.15;6.35;;;;;;;21.63;54.34;100542.09;4333327;33;20924;-84
2021/06/07 22:01:26;;;;;;;10.20;6.30;;;;;;;21.72;54.67;100535.44;4332427;33;20096;-85
2021/06/07 22:03:52;;;;;;;9.38;6.40;;;;;;;21.51;55.41;100542.72;4333311;33;20157;-84
2021/06/07 22:06:19;;;;;;;10.30;6.65;;;;;;;21.61;55.26;100537.78;4334914;33;20108;-85
2021/06/07 22:08:46;;;;;;;7.37;5.70;;;;;;;21.18;57.00;100547.81;4321445;33;20096;-84
2021/06/07 22:11:14;;;;;;;11.15;6.45;;;;;;;21.30;55.67;100540.09;4334526;33;20087;-85
2021/06/07 22:13:41;;;;;;;6.60;5.37;;;;;;;21.20;55.88;100544.12;4332960;33;20534;-84
2021/06/07 22:16:08;;;;;;;9.15;6.30;;;;;;;21.27;54.42;100542.06;4320715;33;20502;-84
2021/06/07 22:18:36;;;;;;;8.05;6.57;;;;;;;21.29;54.46;100537.50;4333700;33;20150;-85
2021/06/07 22:21:03;;;;;;;10.73;8.82;;;;;;;19.87;61.18;100544.75;4333377;33;20096;-85
2021/06/07 22:23:30;;;;;;;11.12;9.75;;;;;;;19.67;61.51;100549.09;4333448;33;20143;-84
2021/06/07 22:25:57;;;;;;;15.55;13.90;;;;;;;20.18;59.55;100545.19;4320149;33;20115;-85
2021/06/07 23:00:30;;;;;;;13.52;12.15;;;;;;;20.14;59.31;100524.87;4394339;27;20203;-83
